sensor_id;sensor_type;location;lat;lon;timestamp;pressure;altitude;pressure_sealevel;temperature;humidity
75045;BME280;63614;56.026;35.960;2023-04-06T00:01:10;100032.50;;;2.37;85.13
75045;BME280;63614;56.026;35.960;2023-04-06T00:03:36;100026.78;;;2.33;85.25
75045;BME280;63614;56.026;35.960;2023-04-06T00:06:03;100027.03;;;2.30;85.53
75045;BME280;63614;56.026;35.960;2023-04-06T00:08:29;100030.19;;;2.23;85.43
75045;BME280;63614;56.026;35.960;2023-04-06T00:10:55;100031.22;;;2.20;85.75
75045;BME280;63614;56.026;35.960;2023-04-06T00:13:21;100029.84;;;2.16;85.46
75045;BME280;63614;56.026;35.960;2023-04-06T00:15:47;100026.56;;;2.14;85.67
75045;BME280;63614;56.026;35.960;2023-04-06T00:18:13;100037.66;;;2.14;85.80
75045;BME280;63614;56.026;35.960;2023-04-06T00:20:39;100032.63;;;2.13;85.89
75045;BME280;63614;56.026;35.960;2023-04-06T00:23:04;100037.75;;;2.13;85.52
75045;BME280;63614;56.026;35.960;2023-04-06T00:25:30;100041.38;;;2.10;85.64
75045;BME280;63614;56.026;35.960;2023-04-06T00:27:56;100041.38;;;2.10;85.51
75045;BME280;63614;56.026;35.960;2023-04-06T00:30:22;100039.53;;;2.12;85.70
75045;BME280;63614;56.026;35.960;2023-04-06T00:32:48;100035.66;;;2.07;85.69
75045;BME280;63614;56.026;35.960;2023-04-06T00:35:14;100036.34;;;2.09;85.83
75045;BME280;63614;56.026;35.960;2023-04-06T00:37:41;100035.31;;;2.11;85.61
75045;BME280;63614;56.026;35.960;2023-04-06T00:40:07;100045.69;;;1.98;86.18
75045;BME280;63614;56.026;35.960;2023-04-06T00:42:33;100044.41;;;2.04;85.74
75045;BME280;63614;56.026;35.960;2023-04-06T00:45:00;100049.63;;;2.03;85.84
75045;BME280;63614;56.026;35.960;2023-04-06T00:47:26;100044.03;;;2.09;85.82
75045;BME280;63614;56.026;35.960;2023-04-06T00:49:53;100048.72;;;2.15;85.52
75045;BME280;63614;56.026;35.960;2023-04-06T00:52:20;100051.16;;;2.16;85.56
75045;BME280;63614;56.026;35.960;2023-04-06T00:54:48;100046.50;;;2.10;85.70
75045;BME280;63614;56.026;35.960;2023-04-06T00:57:17;100035.88;;;2.15;85.78
75045;BME280;63614;56.026;35.960;2023-04-06T00:59:46;100038.00;;;2.10;86.14
75045;BME280;63614;56.026;35.960;2023-04-06T01:02:12;100038.56;;;2.13;85.86
75045;BME280;63614;56.026;35.960;2023-04-06T01:04:47;100040.56;;;2.10;85.98
75045;BME280;63614;56.026;35.960;2023-04-06T01:07:22;100059.69;;;2.06;86.47
75045;BME280;63614;56.026;35.960;2023-04-06T01:10:04;100039.63;;;2.11;85.92
75045;BME280;63614;56.026;35.960;2023-04-06T01:12:32;100044.88;;;2.21;85.80
75045;BME280;63614;56.026;35.960;2023-04-06T01:15:01;100051.41;;;2.25;85.85
75045;BME280;63614;56.026;35.960;2023-04-06T01:17:30;100045.00;;;2.30;85.44
75045;BME280;63614;56.026;35.960;2023-04-06T01:20:02;100043.13;;;2.32;85.43
75045;BME280;63614;56.026;35.960;2023-04-06T01:22:30;100035.28;;;2.34;85.54
75045;BME280;63614;56.026;35.960;2023-04-06T01:24:59;100038.31;;;2.39;85.43
75045;BME280;63614;56.026;35.960;2023-04-06T01:27:45;100042.41;;;2.42;85.28
75045;BME280;63614;56.026;35.960;2023-04-06T01:30:11;100040.31;;;2.47;84.92
75045;BME280;63614;56.026;35.960;2023-04-06T01:32:45;100037.63;;;2.48;84.67
75045;BME280;63614;56.026;35.960;2023-04-06T01:35:14;100035.03;;;2.48;85.12
75045;BME280;63614;56.026;35.960;2023-04-06T01:37:47;100033.41;;;2.59;84.85
75045;BME280;63614;56.026;35.960;2023-04-06T01:40:20;100034.69;;;2.53;84.49
75045;BME280;63614;56.026;35.960;2023-04-06T01:42:50;100031.75;;;2.58;84.59
75045;BME280;63614;56.026;35.960;2023-04-06T01:45:24;100038.19;;;2.52;84.27
75045;BME280;63614;56.026;35.960;2023-04-06T01:47:53;100030.00;;;2.58;84.61
75045;BME280;63614;56.026;35.960;2023-04-06T01:50:22;100026.28;;;2.62;84.54
75045;BME280;63614;56.026;35.960;2023-04-06T01:52:48;100040.28;;;2.58;84.61
75045;BME280;63614;56.026;35.960;2023-04-06T01:55:14;100037.00;;;2.67;84.26
75045;BME280;63614;56.026;35.960;2023-04-06T01:58:03;100039.81;;;2.64;84.17
75045;BME280;63614;56.026;35.960;2023-04-06T02:00:34;100026.16;;;2.64;84.31
75045;BME280;63614;56.026;35.960;2023-04-06T02:03:00;100026.03;;;2.65;84.20
75045;BME280;63614;56.026;35.960;2023-04-06T02:05:30;100031.63;;;2.70;83.99
75045;BME280;63614;56.026;35.960;2023-04-06T02:07:57;100034.06;;;2.72;84.00
75045;BME280;63614;56.026;35.960;2023-04-06T02:10:31;100035.34;;;2.66;84.04
75045;BME280;63614;56.026;35.960;2023-04-06T02:13:01;100035.34;;;2.78;83.71
75045;BME280;63614;56.026;35.960;2023-04-06T02:15:27;100038.63;;;2.68;83.55
75045;BME280;63614;56.026;35.960;2023-04-06T02:17:53;100029.66;;;2.63;84.09
75045;BME280;63614;56.026;35.960;2023-04-06T02:20:18;100037.25;;;2.53;84.23
75045;BME280;63614;56.026;35.960;2023-04-06T02:22:45;100037.81;;;2.57;84.51
75045;BME280;63614;56.026;35.960;2023-04-06T02:25:10;100037.94;;;2.55;84.40
75045;BME280;63614;56.026;35.960;2023-04-06T02:27:38;100027.44;;;2.58;84.21
75045;BME280;63614;56.026;35.960;2023-04-06T02:30:05;100042.63;;;2.50;84.54
75045;BME280;63614;56.026;35.960;2023-04-06T02:32:31;100039.59;;;2.45;84.50
75045;BME280;63614;56.026;35.960;2023-04-06T02:34:57;100039.50;;;2.46;84.59
75045;BME280;63614;56.026;35.960;2023-04-06T02:37:24;100040.31;;;2.35;84.70
75045;BME280;63614;56.026;35.960;2023-04-06T02:39:50;100037.88;;;2.23;85.08
75045;BME280;63614;56.026;35.960;2023-04-06T02:42:16;100037.63;;;2.26;85.29
75045;BME280;63614;56.026;35.960;2023-04-06T02:44:43;100070.66;;;2.30;85.03
75045;BME280;63614;56.026;35.960;2023-04-06T02:47:10;100052.56;;;2.32;85.12
75045;BME280;63614;56.026;35.960;2023-04-06T02:49:37;100046.63;;;2.31;85.29
75045;BME280;63614;56.026;35.960;2023-04-06T02:52:03;100047.66;;;2.40;84.83
75045;BME280;63614;56.026;35.960;2023-04-06T02:54:33;100058.97;;;2.38;84.95
75045;BME280;63614;56.026;35.960;2023-04-06T02:57:00;100064.34;;;2.34;85.39
75045;BME280;63614;56.026;35.960;2023-04-06T02:59:35;100069.13;;;2.39;85.26
75045;BME280;63614;56.026;35.960;2023-04-06T03:02:08;100070.41;;;2.45;84.84
75045;BME280;63614;56.026;35.960;2023-04-06T03:04:34;100069.22;;;2.49;84.30
75045;BME280;63614;56.026;35.960;2023-04-06T03:07:03;100074.75;;;2.56;84.35
75045;BME280;63614;56.026;35.960;2023-04-06T03:09:39;100077.75;;;2.61;84.19
75045;BME280;63614;56.026;35.960;2023-04-06T03:12:05;100074.72;;;2.67;83.90
75045;BME280;63614;56.026;35.960;2023-04-06T03:14:39;100074.47;;;2.70;83.71
75045;BME280;63614;56.026;35.960;2023-04-06T03:17:05;100082.63;;;2.75;83.53
75045;BME280;63614;56.026;35.960;2023-04-06T03:19:31;100077.50;;;2.75;83.56
75045;BME280;63614;56.026;35.960;2023-04-06T03:21:59;100087.44;;;2.68;83.47
75045;BME280;63614;56.026;35.960;2023-04-06T03:24:25;100098.16;;;2.73;83.33
75045;BME280;63614;56.026;35.960;2023-04-06T03:26:51;100097.00;;;2.78;83.14
75045;BME280;63614;56.026;35.960;2023-04-06T03:29:17;100086.09;;;2.85;82.99
75045;BME280;63614;56.026;35.960;2023-04-06T03:31:43;100103.41;;;2.83;82.83
75045;BME280;63614;56.026;35.960;2023-04-06T03:34:23;100107.50;;;2.86;82.60
75045;BME280;63614;56.026;35.960;2023-04-06T03:36:50;100097.88;;;2.99;82.46
75045;BME280;63614;56.026;35.960;2023-04-06T03:39:16;100112.03;;;2.82;82.61
75045;BME280;63614;56.026;35.960;2023-04-06T03:41:43;100105.28;;;2.81;82.93
75045;BME280;63614;56.026;35.960;2023-04-06T03:44:29;100105.03;;;2.84;82.93
75045;BME280;63614;56.026;35.960;2023-04-06T03:46:55;100107.72;;;2.94;82.59
75045;BME280;63614;56.026;35.960;2023-04-06T03:49:21;100117.75;;;2.97;82.08
75045;BME280;63614;56.026;35.960;2023-04-06T03:51:50;100125.56;;;2.96;82.65
75045;BME280;63614;56.026;35.960;2023-04-06T03:54:16;100113.19;;;3.01;82.32
75045;BME280;63614;56.026;35.960;2023-04-06T03:56:42;100121.00;;;2.99;82.12
75045;BME280;63614;56.026;35.960;2023-04-06T03:59:07;100123.69;;;2.98;82.33
75045;BME280;63614;56.026;35.960;2023-04-06T04:01:33;100121.13;;;2.98;82.46
75045;BME280;63614;56.026;35.960;2023-04-06T04:04:01;100138.88;;;3.01;81.85
75045;BME280;63614;56.026;35.960;2023-04-06T04:06:30;100129.66;;;3.09;82.18
75045;BME280;63614;56.026;35.960;2023-04-06T04:08:56;100136.63;;;3.07;81.87
75045;BME280;63614;56.026;35.960;2023-04-06T04:11:22;100131.63;;;3.06;82.12
75045;BME280;63614;56.026;35.960;2023-04-06T04:13:54;100131.25;;;3.11;81.92
75045;BME280;63614;56.026;35.960;2023-04-06T04:16:20;100132.81;;;3.02;81.66
75045;BME280;63614;56.026;35.960;2023-04-06T04:18:45;100130.22;;;3.13;81.77
75045;BME280;63614;56.026;35.960;2023-04-06T04:21:13;100130.88;;;3.26;81.55
75045;BME280;63614;56.026;35.960;2023-04-06T04:23:39;100123.84;;;3.28;81.14
75045;BME280;63614;56.026;35.960;2023-04-06T04:26:04;100135.31;;;3.24;81.07
75045;BME280;63614;56.026;35.960;2023-04-06T04:28:31;100139.97;;;3.31;80.97
75045;BME280;63614;56.026;35.960;2023-04-06T04:30:57;100129.84;;;3.18;81.51
75045;BME280;63614;56.026;35.960;2023-04-06T04:33:23;100132.94;;;3.33;81.05
75045;BME280;63614;56.026;35.960;2023-04-06T04:35:51;100128.78;;;3.20;81.49
75045;BME280;63614;56.026;35.960;2023-04-06T04:38:20;100131.06;;;3.35;80.91
75045;BME280;63614;56.026;35.960;2023-04-06T04:40:50;100143.00;;;3.36;80.79
75045;BME280;63614;56.026;35.960;2023-04-06T04:43:16;100137.03;;;3.35;80.80
75045;BME280;63614;56.026;35.960;2023-04-06T04:45:42;100136.69;;;3.40;80.78
75045;BME280;63614;56.026;35.960;2023-04-06T04:48:23;100134.88;;;3.52;80.35
75045;BME280;63614;56.026;35.960;2023-04-06T04:50:54;100135.38;;;3.67;79.87
75045;BME280;63614;56.026;35.960;2023-04-06T04:53:23;100146.16;;;3.93;79.27
75045;BME280;63614;56.026;35.960;2023-04-06T04:55:50;100130.81;;;3.91;78.70
75045;BME280;63614;56.026;35.960;2023-04-06T04:58:18;100141.50;;;3.87;78.88
75045;BME280;63614;56.026;35.960;2023-04-06T05:00:52;100145.19;;;3.94;78.83
75045;BME280;63614;56.026;35.960;2023-04-06T05:03:24;100144.06;;;4.08;78.13
75045;BME280;63614;56.026;35.960;2023-04-06T05:06:03;100143.63;;;4.03;78.04
75045;BME280;63614;56.026;35.960;2023-04-06T05:08:33;100154.91;;;3.69;79.35
75045;BME280;63614;56.026;35.960;2023-04-06T05:11:00;100154.16;;;3.78;79.92
75045;BME280;63614;56.026;35.960;2023-04-06T05:13:29;100148.06;;;3.79;78.95
75045;BME280;63614;56.026;35.960;2023-04-06T05:15:55;100166.59;;;3.94;78.24
75045;BME280;63614;56.026;35.960;2023-04-06T05:18:30;100157.47;;;4.11;78.04
75045;BME280;63614;56.026;35.960;2023-04-06T05:20:56;100146.56;;;3.98;78.30
75045;BME280;63614;56.026;35.960;2023-04-06T05:23:30;100153.16;;;3.91;78.51
75045;BME280;63614;56.026;35.960;2023-04-06T05:25:58;100145.44;;;4.12;78.10
75045;BME280;63614;56.026;35.960;2023-04-06T05:28:24;100149.13;;;4.19;77.19
75045;BME280;63614;56.026;35.960;2023-04-06T05:30:50;100148.13;;;4.31;77.63
75045;BME280;63614;56.026;35.960;2023-04-06T05:33:16;100148.97;;;4.42;77.82
75045;BME280;63614;56.026;35.960;2023-04-06T05:35:55;100154.19;;;4.30;77.13
75045;BME280;63614;56.026;35.960;2023-04-06T05:38:21;100166.78;;;4.24;77.56
75045;BME280;63614;56.026;35.960;2023-04-06T05:40:51;100156.59;;;4.53;75.98
75045;BME280;63614;56.026;35.960;2023-04-06T05:43:20;100148.66;;;4.35;76.24
75045;BME280;63614;56.026;35.960;2023-04-06T05:45:52;100159.84;;;4.24;77.46
75045;BME280;63614;56.026;35.960;2023-04-06T05:48:18;100141.59;;;4.58;76.43
75045;BME280;63614;56.026;35.960;2023-04-06T05:50:48;100151.06;;;4.98;74.88
75045;BME280;63614;56.026;35.960;2023-04-06T05:53:15;100153.44;;;4.80;75.30
75045;BME280;63614;56.026;35.960;2023-04-06T05:55:48;100162.41;;;4.76;75.40
75045;BME280;63614;56.026;35.960;2023-04-06T05:58:18;100156.91;;;5.00;75.13
75045;BME280;63614;56.026;35.960;2023-04-06T06:00:44;100147.72;;;5.17;74.83
75045;BME280;63614;56.026;35.960;2023-04-06T06:03:13;100160.91;;;5.63;72.87
75045;BME280;63614;56.026;35.960;2023-04-06T06:05:43;100148.69;;;5.55;72.59
75045;BME280;63614;56.026;35.960;2023-04-06T06:08:14;100163.34;;;5.74;71.55
75045;BME280;63614;56.026;35.960;2023-04-06T06:10:58;100155.31;;;5.77;72.49
75045;BME280;63614;56.026;35.960;2023-04-06T06:16:09;100160.38;;;5.40;72.84
75045;BME280;63614;56.026;35.960;2023-04-06T06:18:53;100158.31;;;5.24;73.17
75045;BME280;63614;56.026;35.960;2023-04-06T06:21:19;100146.09;;;5.26;72.75
75045;BME280;63614;56.026;35.960;2023-04-06T06:23:45;100159.28;;;5.72;72.36
75045;BME280;63614;56.026;35.960;2023-04-06T06:26:15;100155.72;;;5.92;70.63
75045;BME280;63614;56.026;35.960;2023-04-06T06:28:42;100160.09;;;6.11;70.83
75045;BME280;63614;56.026;35.960;2023-04-06T06:31:10;100159.41;;;5.80;71.25
75045;BME280;63614;56.026;35.960;2023-04-06T06:33:36;100163.22;;;5.86;71.58
75045;BME280;63614;56.026;35.960;2023-04-06T06:36:02;100149.47;;;6.05;71.36
75045;BME280;63614;56.026;35.960;2023-04-06T06:38:29;100149.91;;;6.00;70.77
75045;BME280;63614;56.026;35.960;2023-04-06T06:40:55;100157.53;;;6.02;71.42
75045;BME280;63614;56.026;35.960;2023-04-06T06:43:24;100156.97;;;5.98;71.23
75045;BME280;63614;56.026;35.960;2023-04-06T06:46:09;100159.94;;;5.83;71.07
75045;BME280;63614;56.026;35.960;2023-04-06T06:48:53;100184.56;;;5.78;71.46
75045;BME280;63614;56.026;35.960;2023-04-06T06:51:37;100154.13;;;5.72;71.27
75045;BME280;63614;56.026;35.960;2023-04-06T06:54:03;100171.50;;;5.79;71.59
75045;BME280;63614;56.026;35.960;2023-04-06T06:56:29;100156.31;;;5.67;71.51
75045;BME280;63614;56.026;35.960;2023-04-06T06:58:55;100150.72;;;5.81;71.50
75045;BME280;63614;56.026;35.960;2023-04-06T07:01:39;100153.66;;;6.15;71.07
75045;BME280;63614;56.026;35.960;2023-04-06T07:04:24;100143.72;;;6.21;70.86
75045;BME280;63614;56.026;35.960;2023-04-06T07:06:50;100139.75;;;6.36;70.51
75045;BME280;63614;56.026;35.960;2023-04-06T07:09:35;100156.97;;;6.45;70.54
75045;BME280;63614;56.026;35.960;2023-04-06T07:12:00;100151.44;;;6.40;70.68
75045;BME280;63614;56.026;35.960;2023-04-06T07:14:46;100144.25;;;6.62;70.47
75045;BME280;63614;56.026;35.960;2023-04-06T07:17:12;100149.00;;;6.66;69.77
75045;BME280;63614;56.026;35.960;2023-04-06T07:19:39;100139.03;;;6.71;69.44
75045;BME280;63614;56.026;35.960;2023-04-06T07:22:04;100138.66;;;6.66;69.43
75045;BME280;63614;56.026;35.960;2023-04-06T07:24:30;100122.78;;;6.61;69.74
75045;BME280;63614;56.026;35.960;2023-04-06T07:27:00;100122.06;;;6.69;69.46
75045;BME280;63614;56.026;35.960;2023-04-06T07:29:27;100127.06;;;6.98;69.54
75045;BME280;63614;56.026;35.960;2023-04-06T07:31:54;100133.94;;;7.07;68.58
75045;BME280;63614;56.026;35.960;2023-04-06T07:34:21;100130.69;;;7.05;68.08
75045;BME280;63614;56.026;35.960;2023-04-06T07:36:47;100126.84;;;6.91;68.92
75045;BME280;63614;56.026;35.960;2023-04-06T07:39:13;100126.47;;;7.04;68.83
75045;BME280;63614;56.026;35.960;2023-04-06T07:41:39;100125.53;;;7.23;67.86
75045;BME280;63614;56.026;35.960;2023-04-06T07:44:06;100121.25;;;7.50;68.30
75045;BME280;63614;56.026;35.960;2023-04-06T07:46:32;100143.50;;;7.43;67.51
75045;BME280;63614;56.026;35.960;2023-04-06T07:48:59;100122.41;;;7.56;66.62
75045;BME280;63614;56.026;35.960;2023-04-06T07:51:29;100117.09;;;7.57;66.60
75045;BME280;63614;56.026;35.960;2023-04-06T07:53:55;100117.28;;;7.82;66.20
75045;BME280;63614;56.026;35.960;2023-04-06T07:56:21;100119.97;;;7.72;66.77
75045;BME280;63614;56.026;35.960;2023-04-06T07:58:47;100122.09;;;8.03;66.47
75045;BME280;63614;56.026;35.960;2023-04-06T08:01:13;100120.78;;;7.99;64.70
75045;BME280;63614;56.026;35.960;2023-04-06T08:03:38;100127.94;;;8.05;65.63
75045;BME280;63614;56.026;35.960;2023-04-06T08:06:05;100110.09;;;8.28;65.18
75045;BME280;63614;56.026;35.960;2023-04-06T08:08:31;100112.72;;;8.36;64.94
75045;BME280;63614;56.026;35.960;2023-04-06T08:10:57;100117.06;;;8.54;64.85
75045;BME280;63614;56.026;35.960;2023-04-06T08:13:23;100121.94;;;8.65;64.48
75045;BME280;63614;56.026;35.960;2023-04-06T08:15:49;100108.22;;;8.73;64.34
75045;BME280;63614;56.026;35.960;2023-04-06T08:18:15;100113.09;;;8.84;62.65
75045;BME280;63614;56.026;35.960;2023-04-06T08:20:41;100111.94;;;8.79;61.96
75045;BME280;63614;56.026;35.960;2023-04-06T08:23:07;100116.97;;;8.80;62.68
75045;BME280;63614;56.026;35.960;2023-04-06T08:25:35;100110.22;;;8.96;62.38
75045;BME280;63614;56.026;35.960;2023-04-06T08:28:03;100118.47;;;8.99;61.48
75045;BME280;63614;56.026;35.960;2023-04-06T08:30:29;100117.19;;;9.03;62.26
75045;BME280;63614;56.026;35.960;2023-04-06T08:32:55;100116.41;;;9.11;60.92
75045;BME280;63614;56.026;35.960;2023-04-06T08:35:21;100113.13;;;9.09;61.20
75045;BME280;63614;56.026;35.960;2023-04-06T08:38:05;100108.63;;;9.27;61.21
75045;BME280;63614;56.026;35.960;2023-04-06T08:40:38;100105.88;;;9.37;60.79
75045;BME280;63614;56.026;35.960;2023-04-06T08:43:07;100114.31;;;9.39;59.72
75045;BME280;63614;56.026;35.960;2023-04-06T08:45:34;100113.03;;;9.35;59.49
75045;BME280;63614;56.026;35.960;2023-04-06T08:48:02;100105.38;;;9.42;58.65
75045;BME280;63614;56.026;35.960;2023-04-06T08:50:32;100107.34;;;9.48;58.93
75045;BME280;63614;56.026;35.960;2023-04-06T08:52:59;100096.47;;;9.53;59.43
75045;BME280;63614;56.026;35.960;2023-04-06T08:55:25;100106.34;;;9.74;58.71
75045;BME280;63614;56.026;35.960;2023-04-06T08:57:52;100097.25;;;9.86;58.76
75045;BME280;63614;56.026;35.960;2023-04-06T09:00:21;100099.84;;;9.78;58.48
75045;BME280;63614;56.026;35.960;2023-04-06T09:02:49;100110.56;;;9.91;57.24
75045;BME280;63614;56.026;35.960;2023-04-06T09:05:15;100097.53;;;9.99;58.44
75045;BME280;63614;56.026;35.960;2023-04-06T09:07:41;100100.63;;;9.95;57.58
75045;BME280;63614;56.026;35.960;2023-04-06T09:10:08;100098.69;;;10.05;56.95
75045;BME280;63614;56.026;35.960;2023-04-06T09:12:34;100116.00;;;10.13;56.73
75045;BME280;63614;56.026;35.960;2023-04-06T09:15:01;100094.72;;;10.17;56.38
75045;BME280;63614;56.026;35.960;2023-04-06T09:17:31;100083.97;;;10.29;55.71
75045;BME280;63614;56.026;35.960;2023-04-06T09:19:59;100090.81;;;10.22;55.72
75045;BME280;63614;56.026;35.960;2023-04-06T09:22:25;100093.09;;;10.25;56.21
75045;BME280;63614;56.026;35.960;2023-04-06T09:24:53;100111.09;;;10.43;56.45
75045;BME280;63614;56.026;35.960;2023-04-06T09:27:32;100080.22;;;10.31;56.35
75045;BME280;63614;56.026;35.960;2023-04-06T09:30:12;100106.56;;;10.36;54.80
75045;BME280;63614;56.026;35.960;2023-04-06T09:32:49;100080.34;;;10.46;54.99
75045;BME280;63614;56.026;35.960;2023-04-06T09:35:15;100093.31;;;10.54;55.86
75045;BME280;63614;56.026;35.960;2023-04-06T09:37:44;100090.34;;;10.66;55.30
75045;BME280;63614;56.026;35.960;2023-04-06T09:40:11;100072.72;;;10.76;54.15
75045;BME280;63614;56.026;35.960;2023-04-06T09:42:41;100092.13;;;10.97;53.39
75045;BME280;63614;56.026;35.960;2023-04-06T09:45:07;100079.22;;;10.80;51.95
75045;BME280;63614;56.026;35.960;2023-04-06T09:47:35;100063.59;;;10.80;51.86
75045;BME280;63614;56.026;35.960;2023-04-06T09:50:02;100075.09;;;10.86;53.20
75045;BME280;63614;56.026;35.960;2023-04-06T09:52:50;100077.81;;;10.93;52.23
75045;BME280;63614;56.026;35.960;2023-04-06T09:55:26;100066.50;;;10.85;52.77
75045;BME280;63614;56.026;35.960;2023-04-06T09:58:14;100071.28;;;10.97;50.98
75045;BME280;63614;56.026;35.960;2023-04-06T10:01:05;100067.63;;;10.60;51.48
75045;BME280;63614;56.026;35.960;2023-04-06T10:09:07;100097.66;;;10.94;52.26
75045;BME280;63614;56.026;35.960;2023-04-06T10:11:34;100073.28;;;10.95;51.24
75045;BME280;63614;56.026;35.960;2023-04-06T10:14:18;100097.63;;;11.02;51.07
75045;BME280;63614;56.026;35.960;2023-04-06T10:16:46;100087.97;;;11.11;51.20
75045;BME280;63614;56.026;35.960;2023-04-06T10:22:02;100075.84;;;11.18;51.17
75045;BME280;63614;56.026;35.960;2023-04-06T10:24:29;100090.75;;;11.09;50.60
75045;BME280;63614;56.026;35.960;2023-04-06T10:29:44;100067.91;;;10.96;51.19
75045;BME280;63614;56.026;35.960;2023-04-06T10:32:10;100063.50;;;10.97;51.47
75045;BME280;63614;56.026;35.960;2023-04-06T10:38:00;100077.50;;;11.19;51.14
75045;BME280;63614;56.026;35.960;2023-04-06T10:40:27;100065.91;;;11.21;51.30
75045;BME280;63614;56.026;35.960;2023-04-06T10:42:54;100057.84;;;11.31;50.54
75045;BME280;63614;56.026;35.960;2023-04-06T10:45:26;100066.22;;;11.26;50.61
75045;BME280;63614;56.026;35.960;2023-04-06T10:47:56;100064.22;;;11.29;51.16
75045;BME280;63614;56.026;35.960;2023-04-06T10:50:22;100064.34;;;11.35;50.08
75045;BME280;63614;56.026;35.960;2023-04-06T10:52:59;100044.81;;;11.31;51.22
75045;BME280;63614;56.026;35.960;2023-04-06T10:55:26;100056.25;;;11.30;50.47
75045;BME280;63614;56.026;35.960;2023-04-06T10:57:53;100088.47;;;11.29;51.17
75045;BME280;63614;56.026;35.960;2023-04-06T11:00:19;100046.78;;;11.29;50.77
75045;BME280;63614;56.026;35.960;2023-04-06T11:02:45;100047.72;;;11.36;51.22
75045;BME280;63614;56.026;35.960;2023-04-06T11:05:12;100045.94;;;11.52;50.68
75045;BME280;63614;56.026;35.960;2023-04-06T11:07:40;100063.66;;;11.56;51.42
75045;BME280;63614;56.026;35.960;2023-04-06T11:10:06;100044.19;;;11.67;50.62
75045;BME280;63614;56.026;35.960;2023-04-06T11:12:32;100046.25;;;11.72;50.16
75045;BME280;63614;56.026;35.960;2023-04-06T11:15:01;100047.41;;;11.69;49.55
75045;BME280;63614;56.026;35.960;2023-04-06T11:17:34;100037.63;;;11.71;49.52
75045;BME280;63614;56.026;35.960;2023-04-06T11:20:02;100044.91;;;11.91;48.04
75045;BME280;63614;56.026;35.960;2023-04-06T11:22:28;100073.16;;;11.87;48.11
75045;BME280;63614;56.026;35.960;2023-04-06T11:25:07;100051.81;;;11.84;47.92
75045;BME280;63614;56.026;35.960;2023-04-06T11:27:34;100054.72;;;11.89;48.34
75045;BME280;63614;56.026;35.960;2023-04-06T11:30:02;100025.41;;;11.87;47.10
75045;BME280;63614;56.026;35.960;2023-04-06T11:32:29;100036.00;;;11.85;47.26
75045;BME280;63614;56.026;35.960;2023-04-06T11:34:57;100049.88;;;11.86;47.58
75045;BME280;63614;56.026;35.960;2023-04-06T11:37:26;100041.88;;;11.87;48.38
75045;BME280;63614;56.026;35.960;2023-04-06T11:39:54;100045.63;;;11.85;46.74
75045;BME280;63614;56.026;35.960;2023-04-06T11:42:25;100046.84;;;11.97;47.92
75045;BME280;63614;56.026;35.960;2023-04-06T11:44:54;100029.06;;;11.77;45.32
75045;BME280;63614;56.026;35.960;2023-04-06T11:47:27;100025.50;;;11.93;46.68
75045;BME280;63614;56.026;35.960;2023-04-06T11:52:59;100040.06;;;11.88;47.54
75045;BME280;63614;56.026;35.960;2023-04-06T11:55:26;100034.50;;;11.91;46.90
75045;BME280;63614;56.026;35.960;2023-04-06T11:57:52;100034.34;;;11.92;46.86
75045;BME280;63614;56.026;35.960;2023-04-06T12:00:36;100023.72;;;11.94;47.36
75045;BME280;63614;56.026;35.960;2023-04-06T12:03:02;100024.16;;;11.97;47.36
75045;BME280;63614;56.026;35.960;2023-04-06T12:05:28;100020.09;;;11.80;46.52
75045;BME280;63614;56.026;35.960;2023-04-06T12:07:54;100024.59;;;11.86;46.62
75045;BME280;63614;56.026;35.960;2023-04-06T12:10:20;100056.69;;;11.87;46.71
75045;BME280;63614;56.026;35.960;2023-04-06T12:12:45;100033.69;;;11.90;47.09
75045;BME280;63614;56.026;35.960;2023-04-06T12:15:11;100023.81;;;12.01;47.58
75045;BME280;63614;56.026;35.960;2023-04-06T12:17:37;100017.16;;;11.98;46.37
75045;BME280;63614;56.026;35.960;2023-04-06T12:20:03;100008.72;;;11.96;46.64
75045;BME280;63614;56.026;35.960;2023-04-06T12:22:29;100048.97;;;11.93;46.90
75045;BME280;63614;56.026;35.960;2023-04-06T12:24:55;100041.81;;;11.95;47.27
75045;BME280;63614;56.026;35.960;2023-04-06T12:27:21;100022.19;;;11.99;47.21
75045;BME280;63614;56.026;35.960;2023-04-06T12:29:47;100017.16;;;11.98;46.88
75045;BME280;63614;56.026;35.960;2023-04-06T12:32:13;100002.97;;;12.01;47.47
75045;BME280;63614;56.026;35.960;2023-04-06T12:34:39;100024.16;;;11.97;45.96
75045;BME280;63614;56.026;35.960;2023-04-06T12:37:06;100020.94;;;11.95;45.86
75045;BME280;63614;56.026;35.960;2023-04-06T12:39:31;100026.75;;;11.82;46.54
75045;BME280;63614;56.026;35.960;2023-04-06T12:41:57;100005.31;;;11.95;47.78
75045;BME280;63614;56.026;35.960;2023-04-06T12:44:23;100010.97;;;11.99;47.69
75045;BME280;63614;56.026;35.960;2023-04-06T12:46:49;100006.09;;;11.96;47.16
75045;BME280;63614;56.026;35.960;2023-04-06T12:49:15;100002.25;;;11.92;47.14
75045;BME280;63614;56.026;35.960;2023-04-06T12:51:43;99989.13;;;12.00;47.15
75045;BME280;63614;56.026;35.960;2023-04-06T12:54:09;100025.31;;;11.95;47.43
75045;BME280;63614;56.026;35.960;2023-04-06T12:56:36;99999.56;;;12.00;47.54
75045;BME280;63614;56.026;35.960;2023-04-06T12:59:02;99986.31;;;11.87;47.80
75045;BME280;63614;56.026;35.960;2023-04-06T13:01:28;99999.81;;;12.05;47.49
75045;BME280;63614;56.026;35.960;2023-04-06T13:03:56;100001.69;;;12.11;48.19
75045;BME280;63614;56.026;35.960;2023-04-06T13:06:22;100013.28;;;12.09;47.51
75045;BME280;63614;56.026;35.960;2023-04-06T13:08:48;100012.91;;;12.12;47.02
75045;BME280;63614;56.026;35.960;2023-04-06T13:11:15;100002.84;;;12.09;46.69
75045;BME280;63614;56.026;35.960;2023-04-06T13:13:41;99994.34;;;12.00;46.73
75045;BME280;63614;56.026;35.960;2023-04-06T13:16:07;99997.03;;;12.07;47.47